createdAt,value
2018-06-05T00:00:07.892Z,0.00
2018-06-05T00:01:08.162Z,0.00
2018-06-05T00:02:08.394Z,0.00
2018-06-05T00:03:08.637Z,0.00
2018-06-05T00:04:08.873Z,0.00
2018-06-05T00:05:09.132Z,0.00
2018-06-05T00:06:09.383Z,0.00
2018-06-05T00:07:09.610Z,0.00
2018-06-05T00:08:09.845Z,0.00
2018-06-05T00:09:10.105Z,0.00
2018-06-05T00:10:10.316Z,0.00
2018-06-05T00:11:10.551Z,0.00
2018-06-05T00:12:10.813Z,0.00
2018-06-05T00:13:11.041Z,0.00
2018-06-05T00:14:11.314Z,0.00
2018-06-05T00:15:11.543Z,0.00
2018-06-05T00:16:11.764Z,0.00
2018-06-05T00:17:12.032Z,0.00
2018-06-05T00:18:12.224Z,0.00
2018-06-05T00:19:12.475Z,0.00
2018-06-05T00:20:12.696Z,0.00
2018-06-05T00:21:12.926Z,0.00
2018-06-05T00:22:13.169Z,0.00
2018-06-05T00:23:13.419Z,0.00
2018-06-05T00:24:13.642Z,0.00
2018-06-05T00:25:13.887Z,0.00
2018-06-05T00:26:14.119Z,0.00
2018-06-05T00:27:14.357Z,0.00
2018-06-05T00:28:14.590Z,0.00
2018-06-05T00:29:14.871Z,0.00
2018-06-05T00:30:15.074Z,0.00
2018-06-05T00:31:15.322Z,0.00
2018-06-05T00:32:15.588Z,0.00
2018-06-05T00:33:15.843Z,0.00
2018-06-05T00:34:16.067Z,0.00
2018-06-05T00:35:16.307Z,0.00
2018-06-05T00:36:16.528Z,0.00
2018-06-05T00:37:16.764Z,0.00
2018-06-05T00:38:17.004Z,0.00
2018-06-05T00:39:17.274Z,0.00
2018-06-05T00:40:17.464Z,0.00
2018-06-05T00:41:17.710Z,0.00
2018-06-05T00:42:17.942Z,0.00
2018-06-05T00:43:18.193Z,0.00
2018-06-05T00:44:18.426Z,0.00
2018-06-05T00:45:18.662Z,0.00
2018-06-05T00:46:18.896Z,0.00
2018-06-05T00:47:19.134Z,0.00
2018-06-05T00:48:19.385Z,0.00
2018-06-05T00:49:19.636Z,0.00
2018-06-05T00:50:19.861Z,0.00
2018-06-05T00:51:20.120Z,0.00
2018-06-05T00:52:20.369Z,0.00
2018-06-05T00:53:20.592Z,0.00
2018-06-05T00:54:20.837Z,0.00
2018-06-05T00:55:21.108Z,0.00
2018-06-05T00:56:21.315Z,0.00
2018-06-05T00:57:21.567Z,0.00
2018-06-05T00:58:21.814Z,0.00
2018-06-05T00:59:22.036Z,0.00
2018-06-05T01:00:22.277Z,0.00
2018-06-05T01:01:22.511Z,0.00
2018-06-05T01:02:22.745Z,0.00
2018-06-05T01:03:22.975Z,0.00
2018-06-05T01:04:23.236Z,0.00
2018-06-05T01:05:23.508Z,0.00
2018-06-05T01:06:23.718Z,0.00
2018-06-05T01:07:23.975Z,0.00
2018-06-05T01:08:24.191Z,0.00
2018-06-05T01:09:24.427Z,0.00
2018-06-05T01:10:24.673Z,0.00
2018-06-05T01:11:24.888Z,0.00
2018-06-05T01:12:25.142Z,0.00
2018-06-05T01:13:25.368Z,0.00
2018-06-05T01:14:25.628Z,0.00
2018-06-05T01:15:25.887Z,0.00
2018-06-05T01:16:26.089Z,0.00
2018-06-05T01:17:26.336Z,0.00
2018-06-05T01:18:26.541Z,0.00
2018-06-05T01:19:26.792Z,0.00
2018-06-05T01:20:27.025Z,0.00
2018-06-05T01:21:27.275Z,0.00
2018-06-05T01:22:27.511Z,0.00
2018-06-05T01:23:27.767Z,0.00
2018-06-05T01:24:27.987Z,0.00
2018-06-05T01:25:28.222Z,0.00
2018-06-05T01:26:28.474Z,0.00
2018-06-05T01:27:28.716Z,0.00
2018-06-05T01:28:28.952Z,0.00
2018-06-05T01:29:29.205Z,0.00
2018-06-05T01:30:29.455Z,0.00
2018-06-05T01:31:29.685Z,0.00
2018-06-05T01:32:29.917Z,0.00
2018-06-05T01:33:30.164Z,0.00
2018-06-05T01:34:30.426Z,0.00
2018-06-05T01:35:30.644Z,0.00
2018-06-05T01:36:30.867Z,0.00
2018-06-05T01:37:31.104Z,0.00
2018-06-05T01:38:31.353Z,0.00
2018-06-05T01:39:31.592Z,0.00
2018-06-05T01:40:31.819Z,0.00
2018-06-05T01:41:32.052Z,0.00
2018-06-05T01:42:32.318Z,0.00
2018-06-05T01:43:32.575Z,0.00
2018-06-05T01:44:32.827Z,0.00
2018-06-05T01:45:33.053Z,0.00
2018-06-05T01:46:33.294Z,0.00
2018-06-05T01:47:33.543Z,0.00
2018-06-05T01:48:33.787Z,0.00
2018-06-05T01:49:34.012Z,0.00
2018-06-05T01:50:34.253Z,0.00
2018-06-05T01:51:34.494Z,0.00
2018-06-05T01:52:34.751Z,0.00
2018-06-05T01:53:34.966Z,0.00
2018-06-05T01:54:35.231Z,0.00
2018-06-05T01:55:35.467Z,0.00
2018-06-05T01:56:35.675Z,0.00
2018-06-05T01:57:35.912Z,0.00
2018-06-05T01:58:36.155Z,0.00
2018-06-05T01:59:36.408Z,0.00
2018-06-05T02:00:36.643Z,0.00
2018-06-05T02:01:36.877Z,0.00
2018-06-05T02:02:37.114Z,0.00
2018-06-05T02:03:37.367Z,0.00
2018-06-05T02:04:37.582Z,0.00
2018-06-05T02:05:37.820Z,0.00
2018-06-05T02:06:38.039Z,0.00
2018-06-05T02:07:38.292Z,0.00
2018-06-05T02:08:38.537Z,0.00
2018-06-05T02:09:38.760Z,0.00
2018-06-05T02:10:39.015Z,0.00
2018-06-05T02:11:39.251Z,0.00
2018-06-05T02:12:39.468Z,0.00
2018-06-05T02:13:39.724Z,0.00
2018-06-05T02:14:39.942Z,0.00
2018-06-05T02:15:40.206Z,0.00
2018-06-05T02:16:40.436Z,0.00
2018-06-05T02:17:40.658Z,0.00
2018-06-05T02:18:40.905Z,0.00
2018-06-05T02:19:41.144Z,0.00
2018-06-05T02:20:41.383Z,0.00
2018-06-05T02:21:41.627Z,0.00
2018-06-05T02:22:41.859Z,0.00
2018-06-05T02:23:42.091Z,0.00
2018-06-05T02:24:42.328Z,0.00
2018-06-05T02:25:42.568Z,0.00
2018-06-05T02:26:42.795Z,0.00
2018-06-05T02:27:43.064Z,0.00
2018-06-05T02:28:43.296Z,0.00
2018-06-05T02:29:43.545Z,0.00
2018-06-05T02:30:43.778Z,0.00
2018-06-05T02:31:44.013Z,0.00
2018-06-05T02:32:44.249Z,0.00
2018-06-05T02:33:44.464Z,0.00
2018-06-05T02:34:44.710Z,0.00
2018-06-05T02:35:44.945Z,0.00
2018-06-05T02:36:45.199Z,0.00
2018-06-05T02:37:45.400Z,0.00
2018-06-05T02:38:45.664Z,0.00
2018-06-05T02:39:45.900Z,0.00
2018-06-05T02:40:46.138Z,0.00
2018-06-05T02:41:46.361Z,0.00
2018-06-05T02:42:46.607Z,0.00
2018-06-05T02:43:46.837Z,0.00
2018-06-05T02:44:47.067Z,0.00
2018-06-05T02:45:47.346Z,0.00
2018-06-05T02:46:47.593Z,0.00
2018-06-05T02:47:47.840Z,0.00
2018-06-05T02:48:48.074Z,0.00
2018-06-05T02:49:48.288Z,0.00
2018-06-05T02:50:48.539Z,0.00
2018-06-05T02:51:48.801Z,0.00
2018-06-05T02:52:49.028Z,0.00
2018-06-05T02:53:49.259Z,0.00
2018-06-05T02:54:49.511Z,0.00
2018-06-05T02:55:49.747Z,0.00
2018-06-05T02:56:49.978Z,0.00
2018-06-05T02:57:50.236Z,0.00
2018-06-05T02:58:50.465Z,0.00
2018-06-05T02:59:50.718Z,0.00
2018-06-05T03:00:50.966Z,0.00
2018-06-05T03:01:51.209Z,0.00
2018-06-05T03:02:51.445Z,0.00
2018-06-05T03:03:51.685Z,0.00
2018-06-05T03:04:51.905Z,0.00
2018-06-05T03:05:52.126Z,0.00
2018-06-05T03:06:52.397Z,0.00
2018-06-05T03:07:52.647Z,0.00
2018-06-05T03:08:52.886Z,0.00
2018-06-05T03:09:53.120Z,0.00
2018-06-05T03:10:53.322Z,0.00
2018-06-05T03:11:53.557Z,0.00
2018-06-05T03:12:53.834Z,0.00
2018-06-05T03:13:54.040Z,0.00
2018-06-05T03:14:54.278Z,0.00
2018-06-05T03:15:54.508Z,0.00
2018-06-05T03:16:54.774Z,0.00
2018-06-05T03:17:54.995Z,0.00
2018-06-05T03:18:55.228Z,0.00
2018-06-05T03:19:55.506Z,0.00
2018-06-05T03:20:55.725Z,0.00
2018-06-05T03:21:55.952Z,0.00
2018-06-05T03:22:56.253Z,0.00
2018-06-05T03:23:56.460Z,0.00
2018-06-05T03:24:56.700Z,0.00
2018-06-05T03:25:56.955Z,0.00
2018-06-05T03:26:57.207Z,0.00
2018-06-05T03:27:57.413Z,0.00
2018-06-05T03:28:57.661Z,0.00
2018-06-05T03:29:57.887Z,0.00
2018-06-05T03:30:58.166Z,0.00
2018-06-05T03:31:58.372Z,0.00
2018-06-05T03:32:58.624Z,0.00
2018-06-05T03:34:08.560Z,0.00
2018-06-05T03:34:59.113Z,0.00
2018-06-05T03:35:59.366Z,0.00
2018-06-05T03:36:59.605Z,0.00
2018-06-05T03:37:59.822Z,0.00
2018-06-05T03:39:00.097Z,0.00
2018-06-05T03:40:00.302Z,0.00
2018-06-05T03:41:00.548Z,0.00
2018-06-05T03:42:00.786Z,0.00
2018-06-05T03:43:01.040Z,0.00
2018-06-05T03:44:01.271Z,0.00
2018-06-05T03:45:01.516Z,0.00
2018-06-05T03:46:01.760Z,0.00
2018-06-05T03:47:02.003Z,0.00
2018-06-05T03:48:02.248Z,0.00
2018-06-05T03:49:02.494Z,0.00
2018-06-05T03:50:02.734Z,0.00
2018-06-05T03:51:02.979Z,0.00
2018-06-05T03:52:03.220Z,0.00
2018-06-05T03:53:03.464Z,0.00
2018-06-05T03:54:03.707Z,0.00
2018-06-05T03:55:03.950Z,0.00
2018-06-05T03:56:04.193Z,0.00
2018-06-05T03:57:04.457Z,0.00
2018-06-05T03:58:04.681Z,0.00
2018-06-05T03:59:04.922Z,0.00
2018-06-05T04:00:05.167Z,0.00
2018-06-05T04:01:05.413Z,0.00
2018-06-05T04:02:05.654Z,0.00
2018-06-05T04:03:05.898Z,0.00
2018-06-05T04:04:06.134Z,0.00
2018-06-05T04:05:06.381Z,0.00
2018-06-05T04:06:06.626Z,0.00
2018-06-05T04:07:06.870Z,0.00
2018-06-05T04:08:07.113Z,0.00
2018-06-05T04:09:07.360Z,0.00
2018-06-05T04:10:07.602Z,0.00
2018-06-05T04:11:07.843Z,0.00
2018-06-05T04:12:08.089Z,0.00
2018-06-05T04:13:08.334Z,0.00
2018-06-05T04:14:08.579Z,0.00
2018-06-05T04:15:08.825Z,0.00
2018-06-05T04:16:09.069Z,0.00
2018-06-05T04:17:09.313Z,0.00
2018-06-05T04:18:09.559Z,0.00
2018-06-05T04:19:09.800Z,0.00
2018-06-05T04:20:10.045Z,0.00
2018-06-05T04:21:10.293Z,0.00
2018-06-05T04:22:10.525Z,0.00
2018-06-05T04:23:10.767Z,0.00
2018-06-05T04:24:11.011Z,0.00
2018-06-05T04:25:11.265Z,0.00
2018-06-05T04:26:11.494Z,0.00
2018-06-05T04:27:11.792Z,0.00
2018-06-05T04:28:11.984Z,0.00
2018-06-05T04:29:12.225Z,0.00
2018-06-05T04:30:12.471Z,0.00
2018-06-05T04:31:12.715Z,0.00
2018-06-05T04:32:12.961Z,0.00
2018-06-05T04:33:13.204Z,0.00
2018-06-05T04:34:13.448Z,0.00
2018-06-05T04:35:13.692Z,1.92
2018-06-05T04:36:13.951Z,3.92
2018-06-05T04:37:14.181Z,3.16
2018-06-05T04:38:14.425Z,7.76
2018-06-05T04:39:14.669Z,5.36
2018-06-05T04:40:14.913Z,10.16
2018-06-05T04:41:15.158Z,11.89
2018-06-05T04:42:15.405Z,12.37
2018-06-05T04:43:15.648Z,13.42
2018-06-05T04:44:15.905Z,9.78
2018-06-05T04:45:16.134Z,5.75
2018-06-05T04:46:16.373Z,5.56
2018-06-05T04:47:16.619Z,5.18
2018-06-05T04:48:16.864Z,6.61
2018-06-05T04:49:17.110Z,7.86
2018-06-05T04:50:17.355Z,7.67
2018-06-05T04:51:17.600Z,6.71
2018-06-05T04:52:17.846Z,9.30
2018-06-05T04:53:18.092Z,8.25
2018-06-05T04:54:18.332Z,7.19
2018-06-05T04:55:18.580Z,7.76
2018-06-05T04:56:18.826Z,4.50
2018-06-05T04:57:19.071Z,4.31
2018-06-05T04:58:19.309Z,0.29
2018-06-05T04:59:19.552Z,2.49
2018-06-05T05:00:19.803Z,2.01
2018-06-05T05:01:20.041Z,0.19
2018-06-05T05:02:20.289Z,0.00
2018-06-05T05:03:20.572Z,0.00
2018-06-05T05:04:20.764Z,0.00
2018-06-05T05:05:21.019Z,2.11
2018-06-05T05:06:21.265Z,2.87
2018-06-05T05:07:21.519Z,0.00
2018-06-05T05:08:21.755Z,0.00
2018-06-05T05:09:21.989Z,0.00
2018-06-05T05:10:22.227Z,0.00
2018-06-05T05:11:22.465Z,0.00
2018-06-05T05:12:22.698Z,0.00
2018-06-05T05:13:22.945Z,0.00
2018-06-05T05:14:23.179Z,0.00
2018-06-05T05:15:23.425Z,0.00
2018-06-05T05:16:23.704Z,0.00
2018-06-05T05:17:23.896Z,0.00
2018-06-05T05:18:24.136Z,0.00
2018-06-05T05:19:24.379Z,0.00
2018-06-05T05:20:24.628Z,0.00
2018-06-05T05:21:24.859Z,0.00
2018-06-05T05:22:25.116Z,0.00
2018-06-05T05:23:25.336Z,0.00
2018-06-05T05:24:25.601Z,0.00
2018-06-05T05:25:25.821Z,0.00
2018-06-05T05:26:26.068Z,0.00
2018-06-05T05:27:26.311Z,0.00
2018-06-05T05:28:26.563Z,0.00
2018-06-05T05:29:26.805Z,0.00
2018-06-05T05:30:27.036Z,0.00
2018-06-05T05:31:27.274Z,0.00
2018-06-05T05:32:27.519Z,0.00
2018-06-05T05:33:27.763Z,0.00
2018-06-05T05:34:28.008Z,0.00
2018-06-05T05:35:28.243Z,0.00
2018-06-05T05:36:28.463Z,0.00
2018-06-05T05:37:28.702Z,0.00
2018-06-05T05:38:28.969Z,0.00
2018-06-05T05:39:29.201Z,0.00
2018-06-05T05:40:29.441Z,0.00
2018-06-05T05:41:29.685Z,0.00
2018-06-05T05:42:29.940Z,0.00
2018-06-05T05:43:30.174Z,0.00
2018-06-05T05:44:30.397Z,2.97
2018-06-05T05:45:30.634Z,2.78
2018-06-05T05:46:30.881Z,0.19
2018-06-05T05:47:31.157Z,0.00
2018-06-05T05:48:31.364Z,2.78
2018-06-05T05:49:31.629Z,3.74
2018-06-05T05:50:31.853Z,3.06
2018-06-05T05:51:32.119Z,2.97
2018-06-05T05:52:32.323Z,1.82
2018-06-05T05:53:32.558Z,3.26
2018-06-05T05:54:32.810Z,4.41
2018-06-05T05:55:33.057Z,2.97
2018-06-05T05:56:33.310Z,6.52
2018-06-05T05:57:33.550Z,10.45
2018-06-05T05:58:33.802Z,5.75
2018-06-05T05:59:34.040Z,5.94
2018-06-05T06:00:34.266Z,4.79
2018-06-05T06:01:34.496Z,8.15
2018-06-05T06:02:34.727Z,9.30
2018-06-05T06:03:34.961Z,10.83
2018-06-05T06:04:35.234Z,9.97
2018-06-05T06:05:35.465Z,12.46
2018-06-05T06:06:35.710Z,13.52
2018-06-05T06:07:35.947Z,14.48
2018-06-05T06:08:36.198Z,16.30
2018-06-05T06:09:36.437Z,13.52
2018-06-05T06:10:36.672Z,11.60
2018-06-05T06:11:36.928Z,11.51
2018-06-05T06:12:37.168Z,12.56
2018-06-05T06:13:37.416Z,15.63
2018-06-05T06:14:37.635Z,16.58
2018-06-05T06:15:37.868Z,18.89
2018-06-05T06:16:38.114Z,24.27
2018-06-05T06:17:38.373Z,24.65
2018-06-05T06:18:38.625Z,22.64
2018-06-05T06:19:38.848Z,23.98
2018-06-05T06:20:39.091Z,21.39
2018-06-05T06:21:39.360Z,21.39
2018-06-05T06:22:39.599Z,23.60
2018-06-05T06:23:39.843Z,25.13
2018-06-05T06:24:40.093Z,26.57
2018-06-05T06:25:40.349Z,25.32
2018-06-05T06:26:40.593Z,25.04
2018-06-05T06:27:40.832Z,27.05
2018-06-05T06:28:41.101Z,24.46
2018-06-05T06:29:41.330Z,28.11
2018-06-05T06:30:41.556Z,29.06
2018-06-05T06:31:41.800Z,30.60
2018-06-05T06:32:42.039Z,26.48
2018-06-05T06:33:42.268Z,30.89
2018-06-05T06:34:42.520Z,31.66
2018-06-05T06:35:42.754Z,35.30
2018-06-05T06:36:42.988Z,37.60
2018-06-05T06:37:43.226Z,35.59
2018-06-05T06:38:43.489Z,33.58
2018-06-05T06:39:43.774Z,38.76
2018-06-05T06:40:43.973Z,40.10
2018-06-05T06:41:44.218Z,38.85
2018-06-05T06:42:44.460Z,34.44
2018-06-05T06:43:44.735Z,39.23
2018-06-05T06:44:44.961Z,37.22
2018-06-05T06:45:45.211Z,42.79
2018-06-05T06:46:45.437Z,44.23
2018-06-05T06:47:45.689Z,45.21
2018-06-05T06:48:45.950Z,46.07
2018-06-05T06:49:46.177Z,41.17
2018-06-05T06:50:46.412Z,45.76
2018-06-05T06:51:46.663Z,46.24
2018-06-05T06:52:46.894Z,46.07
2018-06-05T06:53:47.138Z,47.61
2018-06-05T06:54:47.388Z,51.06
2018-06-05T06:55:47.614Z,49.15
2018-06-05T06:56:47.859Z,48.18
2018-06-05T06:57:48.098Z,49.24
2018-06-05T06:58:48.336Z,49.43
2018-06-05T06:59:48.583Z,51.45
2018-06-05T07:00:48.834Z,52.98
2018-06-05T07:01:49.070Z,53.85
2018-06-05T07:02:49.346Z,54.33
2018-06-05T07:03:49.556Z,53.36
2018-06-05T07:04:49.790Z,53.46
2018-06-05T07:05:50.044Z,54.23
2018-06-05T07:06:50.289Z,54.90
2018-06-05T07:07:50.526Z,50.01
2018-06-05T07:08:50.771Z,51.93
2018-06-05T07:09:51.016Z,50.87
2018-06-05T07:10:51.245Z,46.55
2018-06-05T07:11:51.491Z,46.74
2018-06-05T07:12:51.733Z,47.89
2018-06-05T07:13:51.989Z,51.35
2018-06-05T07:14:52.224Z,50.49
2018-06-05T07:15:52.468Z,55.47
2018-06-05T07:16:52.699Z,50.01
2018-06-05T07:17:52.956Z,47.03
2018-06-05T07:18:53.182Z,47.32
2018-06-05T07:19:53.438Z,49.82
2018-06-05T07:20:53.654Z,47.51
2018-06-05T07:21:53.900Z,51.45
2018-06-05T07:22:54.140Z,54.42
2018-06-05T07:23:54.374Z,53.56
2018-06-05T07:24:54.598Z,59.03
2018-06-05T07:25:54.865Z,59.80
2018-06-05T07:26:55.083Z,56.05
2018-06-05T07:27:55.354Z,53.01
2018-06-05T07:28:55.588Z,55.89
2018-06-05T07:29:55.821Z,58.07
2018-06-05T07:30:56.061Z,56.46
2018-06-05T07:31:56.309Z,60.66
2018-06-05T07:32:56.553Z,59.03
2018-06-05T07:33:56.775Z,54.80
2018-06-05T07:34:57.045Z,55.22
2018-06-05T07:35:57.294Z,56.46
2018-06-05T07:36:57.525Z,58.96
2018-06-05T07:37:57.769Z,54.83
2018-06-05T07:38:58.011Z,53.97
2018-06-05T07:39:58.277Z,57.23
2018-06-05T07:40:58.498Z,55.69
2018-06-05T07:41:58.732Z,61.17
2018-06-05T07:42:59.008Z,67.83
2018-06-05T07:43:59.232Z,69.37
2018-06-05T07:44:59.488Z,70.04
2018-06-05T07:45:59.723Z,72.54
2018-06-05T07:46:59.979Z,73.50
2018-06-05T07:48:00.237Z,77.06
2018-06-05T07:49:00.456Z,75.81
2018-06-05T07:50:00.804Z,76.48
2018-06-05T07:51:00.948Z,75.62
2018-06-05T07:52:01.214Z,75.90
2018-06-05T07:53:01.458Z,71.35
2018-06-05T07:54:01.715Z,71.67
2018-06-05T07:55:01.948Z,72.16
2018-06-05T07:56:02.209Z,69.62
2018-06-05T07:57:02.427Z,67.41
2018-06-05T07:58:02.695Z,68.60
2018-06-05T07:59:02.937Z,69.37
2018-06-05T08:00:03.170Z,74.75
2018-06-05T08:01:03.412Z,76.00
2018-06-05T08:02:03.656Z,79.75
2018-06-05T08:03:03.911Z,80.80
2018-06-05T08:04:04.131Z,81.13
2018-06-05T08:05:04.378Z,87.09
2018-06-05T08:06:04.633Z,91.03
2018-06-05T08:07:04.865Z,93.63
2018-06-05T08:08:05.122Z,92.23
2018-06-05T08:09:05.368Z,94.64
2018-06-05T08:10:05.631Z,91.85
2018-06-05T08:11:05.871Z,94.06
2018-06-05T08:12:06.107Z,92.91
2018-06-05T08:13:06.346Z,92.13
2018-06-05T08:14:06.585Z,90.79
2018-06-05T08:15:06.820Z,93.58
2018-06-05T08:16:07.066Z,93.29
2018-06-05T08:17:07.313Z,94.35
2018-06-05T08:18:07.548Z,96.32
2018-06-05T08:19:07.804Z,94.11
2018-06-05T08:20:08.022Z,95.60
2018-06-05T08:21:08.260Z,96.56
2018-06-05T08:22:08.489Z,98.39
2018-06-05T08:23:08.743Z,99.99
2018-06-05T08:24:08.980Z,99.26
2018-06-05T08:25:09.226Z,98.10
2018-06-05T08:26:09.463Z,99.99
2018-06-05T08:27:09.731Z,93.68
2018-06-05T08:28:09.967Z,95.55
2018-06-05T08:29:10.204Z,91.42
2018-06-05T08:30:10.447Z,94.21
2018-06-05T08:31:10.688Z,96.37
2018-06-05T08:32:10.925Z,92.91
2018-06-05T08:33:11.167Z,98.77
2018-06-05T08:34:11.409Z,98.05
2018-06-05T08:35:11.661Z,99.99
2018-06-05T08:36:11.891Z,99.99
2018-06-05T08:37:12.143Z,99.99
2018-06-05T08:38:12.370Z,99.99
2018-06-05T08:39:12.624Z,99.99
2018-06-05T08:40:12.852Z,99.99
2018-06-05T08:41:13.098Z,99.99
2018-06-05T08:42:13.349Z,99.99
2018-06-05T08:43:13.588Z,99.99
2018-06-05T08:44:13.844Z,99.99
2018-06-05T08:45:14.092Z,99.99
2018-06-05T08:46:14.330Z,99.99
2018-06-05T08:47:14.570Z,99.99
2018-06-05T08:48:14.806Z,99.99
2018-06-05T08:49:15.045Z,99.99
2018-06-05T08:50:15.289Z,99.99
2018-06-05T08:51:15.521Z,99.99
2018-06-05T08:52:15.779Z,99.99
2018-06-05T08:53:16.017Z,99.99
2018-06-05T08:54:16.337Z,99.99
2018-06-05T08:55:16.492Z,99.99
2018-06-05T08:56:16.733Z,99.99
2018-06-05T08:57:16.979Z,99.99
2018-06-05T08:58:17.252Z,99.99
2018-06-05T08:59:17.475Z,99.99
2018-06-05T09:00:17.711Z,99.99
2018-06-05T09:01:17.986Z,99.99
2018-06-05T09:02:18.197Z,99.99
2018-06-05T09:03:18.442Z,99.99
2018-06-05T09:04:18.682Z,99.99
2018-06-05T09:05:18.953Z,99.99
2018-06-05T09:06:19.177Z,99.99
2018-06-05T09:07:19.428Z,99.99
2018-06-05T09:08:19.677Z,99.99
2018-06-05T09:09:19.936Z,99.99
2018-06-05T09:10:20.156Z,99.99
2018-06-05T09:11:20.422Z,99.99
2018-06-05T09:12:20.694Z,99.99
2018-06-05T09:13:20.941Z,99.99
2018-06-05T09:14:21.198Z,99.99
2018-06-05T09:15:21.431Z,99.99
2018-06-05T09:16:21.677Z,99.99
2018-06-05T09:17:21.925Z,99.99
2018-06-05T09:18:22.166Z,99.99
2018-06-05T09:19:22.411Z,99.99
2018-06-05T09:20:22.673Z,99.99
2018-06-05T09:21:22.910Z,99.99
2018-06-05T09:22:23.153Z,99.99
2018-06-05T09:23:23.428Z,99.99
2018-06-05T09:24:23.651Z,99.99
2018-06-05T09:25:23.908Z,99.99
2018-06-05T09:26:24.142Z,99.99
2018-06-05T09:27:24.397Z,99.99
2018-06-05T09:28:24.638Z,99.99
2018-06-05T09:29:24.885Z,99.99
2018-06-05T09:30:25.123Z,99.99
2018-06-05T09:31:25.374Z,99.99
2018-06-05T09:32:25.627Z,99.99
2018-06-05T09:33:25.856Z,99.99
2018-06-05T09:34:26.139Z,99.99
2018-06-05T09:35:26.350Z,99.99
2018-06-05T09:36:26.598Z,99.99
2018-06-05T09:37:26.844Z,99.99
2018-06-05T09:38:27.090Z,99.99
2018-06-05T09:39:27.331Z,99.99
2018-06-05T09:40:27.581Z,99.99
2018-06-05T09:41:27.848Z,99.99
2018-06-05T09:42:28.064Z,99.99
2018-06-05T09:43:28.319Z,99.99
2018-06-05T09:44:28.553Z,99.99
2018-06-05T09:45:28.801Z,99.99
2018-06-05T09:46:29.059Z,99.99
2018-06-05T09:47:29.295Z,99.99
2018-06-05T09:48:29.534Z,99.99
2018-06-05T09:49:29.795Z,99.99
2018-06-05T09:50:30.025Z,99.99
2018-06-05T09:51:30.277Z,99.99
2018-06-05T09:52:30.547Z,99.99
2018-06-05T09:53:30.769Z,99.99
2018-06-05T09:54:31.010Z,99.99
2018-06-05T09:55:31.259Z,99.99
2018-06-05T09:56:31.501Z,99.99
2018-06-05T09:57:31.755Z,99.99
2018-06-05T09:58:32.090Z,99.99
2018-06-05T09:59:32.269Z,99.99
2018-06-05T10:00:32.486Z,99.99
2018-06-05T10:01:32.759Z,99.99
2018-06-05T10:02:32.990Z,99.99
2018-06-05T10:03:33.232Z,99.99
2018-06-05T10:04:33.483Z,99.99
2018-06-05T10:05:33.733Z,99.99
2018-06-05T10:06:33.979Z,99.99
2018-06-05T10:07:34.216Z,99.99
2018-06-05T10:08:34.467Z,99.99
2018-06-05T10:09:34.715Z,99.99
2018-06-05T10:10:34.960Z,99.99
2018-06-05T10:11:35.218Z,99.99
2018-06-05T10:12:35.464Z,99.99
2018-06-05T10:13:35.686Z,97.03
2018-06-05T10:14:35.926Z,88.97
2018-06-05T10:15:36.171Z,97.56
2018-06-05T10:16:36.423Z,92.22
2018-06-05T10:17:36.672Z,82.21
2018-06-05T10:18:36.925Z,73.34
2018-06-05T10:19:37.178Z,71.37
2018-06-05T10:20:37.423Z,80.09
2018-06-05T10:21:37.678Z,88.44
2018-06-05T10:22:37.937Z,98.05
2018-06-05T10:23:38.172Z,99.99
2018-06-05T10:24:38.426Z,99.99
2018-06-05T10:25:38.681Z,99.99
2018-06-05T10:26:38.920Z,99.99
2018-06-05T10:27:39.158Z,99.99
2018-06-05T10:28:39.420Z,99.99
2018-06-05T10:29:39.672Z,99.99
2018-06-05T10:30:39.925Z,99.99
2018-06-05T10:31:40.171Z,94.07
2018-06-05T10:32:40.396Z,78.05
2018-06-05T10:33:40.653Z,77.87
2018-06-05T10:34:40.937Z,86.88
2018-06-05T10:35:41.148Z,79.08
2018-06-05T10:36:41.399Z,67.18
2018-06-05T10:37:41.655Z,62.63
2018-06-05T10:38:41.909Z,69.68
2018-06-05T10:39:42.157Z,74.54
2018-06-05T10:40:42.416Z,73.02
2018-06-05T10:41:42.671Z,67.08
2018-06-05T10:42:42.938Z,70.36
2018-06-05T10:43:43.179Z,65.33
2018-06-05T10:44:43.434Z,72.66
2018-06-05T10:45:43.686Z,84.38
2018-06-05T10:46:43.993Z,92.18
2018-06-05T10:47:44.198Z,93.10
2018-06-05T10:48:44.449Z,92.91
2018-06-05T10:49:44.704Z,79.08
2018-06-05T10:50:44.956Z,69.84
2018-06-05T10:51:45.218Z,64.32
2018-06-05T10:52:45.476Z,65.92
2018-06-05T10:53:45.743Z,60.68
2018-06-05T10:54:45.984Z,56.71
2018-06-05T10:55:46.237Z,57.98
2018-06-05T10:56:46.493Z,58.70
2018-06-05T10:57:46.748Z,57.07
2018-06-05T10:58:47.006Z,58.76
2018-06-05T10:59:47.260Z,55.69
2018-06-05T11:00:47.511Z,53.96
2018-06-05T11:01:47.761Z,49.58
2018-06-05T11:02:48.009Z,49.21
2018-06-05T11:03:48.268Z,47.67
2018-06-05T11:04:48.524Z,48.09
2018-06-05T11:05:48.779Z,49.31
2018-06-05T11:06:49.036Z,49.60
2018-06-05T11:07:49.293Z,49.41
2018-06-05T11:08:49.551Z,49.21
2018-06-05T11:09:49.809Z,50.95
2018-06-05T11:10:50.063Z,52.61
2018-06-05T11:11:50.323Z,57.01
2018-06-05T11:12:50.649Z,56.00
2018-06-05T11:13:50.841Z,54.49
2018-06-05T11:14:51.094Z,52.66
2018-06-05T11:15:51.350Z,51.51
2018-06-05T11:16:51.631Z,50.76
2018-06-05T11:17:51.863Z,49.41
2018-06-05T11:18:52.120Z,48.38
2018-06-05T11:19:52.385Z,46.95
2018-06-05T11:20:52.644Z,46.98
2018-06-05T11:21:52.899Z,50.68
2018-06-05T11:22:53.149Z,54.50
2018-06-05T11:23:53.407Z,60.20
2018-06-05T11:24:53.663Z,60.85
2018-06-05T11:25:53.924Z,55.02
2018-06-05T11:26:54.171Z,51.27
2018-06-05T11:27:54.437Z,50.73
2018-06-05T11:28:54.683Z,51.00
2018-06-05T11:29:54.945Z,48.77
2018-06-05T11:30:55.195Z,47.63
2018-06-05T11:31:55.448Z,47.95
2018-06-05T11:32:55.701Z,52.41
2018-06-05T11:33:55.951Z,56.56
2018-06-05T11:34:56.209Z,55.57
2018-06-05T11:35:56.469Z,51.39
2018-06-05T11:36:56.750Z,51.22
2018-06-05T11:37:56.980Z,50.37
2018-06-05T11:38:57.235Z,49.11
2018-06-05T11:39:57.493Z,48.85
2018-06-05T11:40:57.749Z,50.37
2018-06-05T11:41:58.008Z,53.61
2018-06-05T11:42:58.264Z,57.79
2018-06-05T11:43:58.523Z,60.44
2018-06-05T11:44:58.786Z,62.12
2018-06-05T11:45:59.029Z,62.79
2018-06-05T11:46:59.339Z,56.14
2018-06-05T11:47:59.543Z,60.72
2018-06-05T11:48:59.803Z,58.02
2018-06-05T11:50:00.059Z,55.27
2018-06-05T11:51:00.320Z,50.83
2018-06-05T11:52:00.569Z,50.27
2018-06-05T11:53:00.822Z,54.70
2018-06-05T11:54:01.108Z,57.85
2018-06-05T11:55:01.334Z,56.27
2018-06-05T11:56:01.584Z,54.15
2018-06-05T11:57:01.841Z,53.27
2018-06-05T11:58:02.097Z,51.32
2018-06-05T11:59:02.357Z,50.88
2018-06-05T12:00:02.614Z,47.89
2018-06-05T12:01:02.858Z,48.28
2018-06-05T12:02:03.119Z,48.97
2018-06-05T12:03:03.373Z,48.19
2018-06-05T12:04:03.621Z,48.55
2018-06-05T12:05:03.881Z,46.98
2018-06-05T12:06:04.151Z,48.36
2018-06-05T12:07:04.383Z,49.21
2018-06-05T12:08:04.641Z,49.60
2018-06-05T12:09:04.894Z,48.53
2018-06-05T12:10:05.154Z,48.07
2018-06-05T12:11:05.410Z,47.40
2018-06-05T12:12:05.682Z,46.33
2018-06-05T12:13:05.931Z,47.79
2018-06-05T12:14:06.197Z,47.87
2018-06-05T12:15:06.442Z,52.76
2018-06-05T12:16:06.707Z,54.21
2018-06-05T12:17:06.962Z,56.72
2018-06-05T12:18:07.217Z,55.24
2018-06-05T12:19:07.472Z,54.27
2018-06-05T12:20:07.729Z,53.74
2018-06-05T12:21:07.992Z,50.63
2018-06-05T12:22:08.259Z,51.81
2018-06-05T12:23:08.506Z,53.61
2018-06-05T12:24:08.763Z,50.54
2018-06-05T12:25:09.044Z,50.95
2018-06-05T12:26:09.273Z,48.63
2018-06-05T12:27:09.535Z,47.67
2018-06-05T12:28:09.789Z,47.50
2018-06-05T12:29:10.051Z,45.31
2018-06-05T12:30:10.301Z,46.25
2018-06-05T12:31:10.553Z,44.48
2018-06-05T12:32:10.804Z,45.37
2018-06-05T12:33:11.046Z,45.86
2018-06-05T12:34:11.328Z,44.95
2018-06-05T12:35:11.583Z,48.33
2018-06-05T12:36:11.838Z,47.28
2018-06-05T12:37:12.099Z,48.80
2018-06-05T12:38:12.359Z,48.53
2018-06-05T12:39:12.617Z,47.28
2018-06-05T12:40:12.865Z,46.97
2018-06-05T12:41:13.152Z,46.33
2018-06-05T12:42:13.380Z,44.62
2018-06-05T12:43:13.662Z,43.26
2018-06-05T12:44:13.910Z,43.92
2018-06-05T12:45:14.165Z,42.84
2018-06-05T12:46:14.415Z,44.29
2018-06-05T12:47:14.671Z,43.99
2018-06-05T12:48:14.928Z,44.95
2018-06-05T12:49:15.177Z,48.68
2018-06-05T12:50:15.510Z,46.57
2018-06-05T12:51:15.738Z,48.02
2018-06-05T12:52:15.983Z,48.38
2018-06-05T12:53:16.244Z,51.41
2018-06-05T12:54:16.485Z,51.14
2018-06-05T12:55:16.748Z,51.24
2018-06-05T12:56:17.086Z,52.66
2018-06-05T12:57:17.319Z,52.39
2018-06-05T12:58:17.625Z,54.38
2018-06-05T12:59:17.828Z,54.43
2018-06-05T13:00:18.076Z,57.11
2018-06-05T13:01:18.335Z,53.36
2018-06-05T13:02:18.582Z,52.34
2018-06-05T13:03:18.859Z,48.09
2018-06-05T13:04:19.092Z,48.02
2018-06-05T13:05:19.400Z,49.14
2018-06-05T13:06:19.596Z,48.28
2018-06-05T13:07:19.852Z,49.66